createdAt,value
2022-10-28T00:00:19.850Z,8.94
2022-10-28T00:03:28.328Z,8.95
2022-10-28T00:06:38.453Z,8.97
2022-10-28T00:09:46.908Z,8.99
2022-10-28T00:12:55.411Z,8.99
2022-10-28T00:16:10.339Z,8.95
2022-10-28T00:19:19.184Z,8.95
2022-10-28T00:22:29.554Z,8.97
2022-10-28T00:25:37.687Z,8.94
2022-10-28T00:28:48.884Z,8.92
2022-10-28T00:31:57.105Z,8.86
2022-10-28T00:35:06.660Z,8.86
2022-10-28T00:38:16.213Z,8.85
2022-10-28T00:41:27.541Z,8.85
2022-10-28T00:44:56.362Z,8.82
2022-10-28T00:48:07.394Z,8.77
2022-10-28T00:51:17.750Z,8.71
2022-10-28T00:54:28.869Z,8.70
2022-10-28T00:57:40.405Z,8.69
2022-10-28T01:00:48.585Z,8.65
2022-10-28T01:03:58.985Z,8.64
2022-10-28T01:07:07.983Z,8.61
2022-10-28T01:10:18.060Z,8.61
2022-10-28T01:13:41.664Z,8.58
2022-10-28T01:17:09.505Z,8.62
2022-10-28T01:21:15.098Z,8.60
2022-10-28T01:24:57.625Z,8.57
2022-10-28T01:28:55.121Z,8.62
2022-10-28T01:32:13.389Z,8.57
2022-10-28T01:35:32.271Z,8.57
2022-10-28T01:38:52.938Z,8.56
2022-10-28T01:42:21.680Z,8.60
2022-10-28T01:45:38.271Z,8.59
2022-10-28T01:48:55.379Z,8.62
2022-10-28T01:52:07.911Z,8.56
2022-10-28T01:55:22.540Z,8.58
2022-10-28T01:58:34.832Z,8.64
2022-10-28T02:01:43.604Z,8.64
2022-10-28T02:05:03.081Z,8.69
2022-10-28T02:08:36.969Z,8.69
2022-10-28T02:12:12.186Z,8.78
2022-10-28T02:15:39.642Z,8.80
2022-10-28T02:19:02.423Z,8.81
2022-10-28T02:22:22.308Z,8.86
2022-10-28T02:25:40.565Z,8.86
2022-10-28T02:28:58.164Z,8.85
2022-10-28T02:32:12.487Z,8.83
2022-10-28T02:35:31.812Z,8.80
2022-10-28T02:38:50.294Z,8.78
2022-10-28T02:42:04.885Z,8.71
2022-10-28T02:45:19.093Z,8.69
2022-10-28T02:48:34.661Z,8.67
2022-10-28T02:51:49.926Z,8.63
2022-10-28T02:55:04.505Z,8.62
2022-10-28T02:58:13.391Z,8.57
2022-10-28T03:01:21.772Z,8.56
2022-10-28T03:04:31.076Z,8.61
2022-10-28T03:07:39.360Z,8.58
2022-10-28T03:10:48.961Z,8.69
2022-10-28T03:13:57.178Z,8.68
2022-10-28T03:17:05.724Z,8.66
2022-10-28T03:20:14.601Z,8.65
2022-10-28T03:23:22.785Z,8.66
2022-10-28T03:26:32.302Z,8.65
2022-10-28T03:29:44.970Z,8.69
2022-10-28T03:32:54.787Z,8.70
2022-10-28T03:36:03.301Z,8.61
2022-10-28T03:39:11.836Z,8.64
2022-10-28T03:42:21.363Z,8.61
2022-10-28T03:48:42.745Z,8.60
2022-10-28T03:51:50.980Z,8.58
2022-10-28T03:54:59.744Z,8.56
2022-10-28T03:58:09.341Z,8.55
2022-10-28T04:01:18.031Z,8.52
2022-10-28T04:04:29.858Z,8.49
2022-10-28T04:07:39.095Z,8.57
2022-10-28T04:10:48.508Z,8.50
2022-10-28T04:13:58.248Z,8.45
2022-10-28T04:17:06.482Z,8.43
2022-10-28T04:20:14.857Z,8.42
2022-10-28T04:23:23.084Z,8.41
2022-10-28T04:26:31.937Z,8.38
2022-10-28T04:29:41.614Z,8.36
2022-10-28T04:32:49.933Z,8.38
2022-10-28T04:35:58.543Z,8.52
2022-10-28T04:39:06.820Z,8.35
2022-10-28T04:42:15.237Z,8.36
2022-10-28T04:45:24.936Z,8.31
2022-10-28T04:48:33.318Z,8.27
2022-10-28T04:51:41.601Z,8.20
2022-10-28T04:54:49.995Z,8.19
2022-10-28T04:58:00.337Z,8.14
2022-10-28T05:01:11.782Z,8.20
2022-10-28T05:04:20.271Z,8.15
2022-10-28T05:07:28.687Z,8.18
2022-10-28T05:10:36.942Z,8.20
2022-10-28T05:13:46.237Z,8.19
2022-10-28T05:16:56.010Z,8.14
2022-10-28T05:20:05.406Z,8.17
2022-10-28T05:23:13.829Z,8.16
2022-10-28T05:26:22.165Z,8.15
2022-10-28T05:29:33.346Z,8.16
2022-10-28T05:32:43.229Z,8.18
2022-10-28T05:35:52.065Z,8.18
2022-10-28T05:39:00.286Z,8.17
2022-10-28T05:42:08.505Z,8.19
2022-10-28T05:45:17.020Z,8.21
2022-10-28T05:48:27.159Z,8.21
2022-10-28T05:51:35.627Z,8.27
2022-10-28T05:54:43.924Z,8.39
2022-10-28T05:57:53.843Z,8.37
2022-10-28T06:01:02.302Z,8.47
2022-10-28T06:04:12.101Z,8.60
2022-10-28T06:07:20.538Z,8.69
2022-10-28T06:10:29.258Z,8.78
2022-10-28T06:13:36.062Z,8.87
2022-10-28T06:16:45.601Z,8.97
2022-10-28T06:19:55.314Z,9.04
2022-10-28T06:23:03.638Z,9.26
2022-10-28T06:26:12.218Z,9.34
2022-10-28T06:29:20.588Z,9.53
2022-10-28T06:32:28.980Z,9.69
2022-10-28T06:35:38.805Z,9.84
2022-10-28T06:38:47.057Z,9.98
2022-10-28T06:41:55.370Z,10.08
2022-10-28T06:45:04.866Z,10.25
2022-10-28T06:48:17.384Z,10.48
2022-10-28T06:51:27.241Z,10.63
2022-10-28T06:54:35.593Z,10.79
2022-10-28T06:57:43.914Z,10.86
2022-10-28T07:00:53.096Z,10.89
2022-10-28T07:04:01.565Z,10.97
2022-10-28T07:07:11.429Z,11.04
2022-10-28T07:10:19.797Z,11.18
2022-10-28T07:13:28.951Z,11.29
2022-10-28T07:16:37.554Z,11.37
2022-10-28T07:19:45.718Z,11.67
2022-10-28T07:22:58.705Z,12.04
2022-10-28T07:26:07.580Z,12.15
2022-10-28T07:29:16.034Z,12.24
2022-10-28T07:32:24.325Z,12.37
2022-10-28T07:35:32.939Z,12.50
2022-10-28T07:38:42.578Z,12.57
2022-10-28T07:41:50.774Z,12.73
2022-10-28T07:44:58.979Z,12.90
2022-10-28T07:48:08.299Z,13.16
2022-10-28T07:51:17.304Z,13.41
2022-10-28T07:54:27.140Z,13.58
2022-10-28T07:57:36.260Z,13.71
2022-10-28T08:00:44.421Z,13.91
2022-10-28T08:03:52.758Z,14.05
2022-10-28T08:07:01.085Z,14.33
2022-10-28T08:10:11.260Z,14.61
2022-10-28T08:13:19.626Z,14.82
2022-10-28T08:16:29.061Z,15.06
2022-10-28T08:19:37.603Z,15.29
2022-10-28T08:22:45.929Z,15.62
2022-10-28T08:25:56.526Z,15.92
2022-10-28T08:29:04.726Z,16.24
2022-10-28T08:32:13.098Z,16.48
2022-10-28T08:35:21.578Z,16.83
2022-10-28T08:38:30.028Z,17.13
2022-10-28T08:41:46.406Z,17.53
2022-10-28T08:45:21.207Z,18.00
2022-10-28T08:48:34.776Z,18.41
2022-10-28T08:51:52.616Z,18.77
2022-10-28T08:55:07.507Z,19.21
2022-10-28T08:58:26.312Z,19.73
2022-10-28T09:01:45.771Z,20.25
2022-10-28T09:05:03.122Z,20.37
2022-10-28T09:08:22.555Z,20.60
2022-10-28T09:12:06.659Z,20.78
2022-10-28T09:15:33.232Z,20.86
2022-10-28T09:18:53.969Z,20.91
2022-10-28T09:22:21.945Z,20.98
2022-10-28T09:25:40.329Z,20.88
2022-10-28T09:29:05.563Z,20.62
2022-10-28T09:32:27.086Z,20.56
2022-10-28T09:35:42.965Z,20.52
2022-10-28T09:38:57.258Z,20.47
2022-10-28T09:42:05.943Z,20.50
2022-10-28T09:45:20.947Z,20.56
2022-10-28T09:48:35.429Z,20.63
2022-10-28T09:51:53.863Z,20.84
2022-10-28T09:55:17.177Z,21.09
2022-10-28T09:58:25.979Z,21.06
2022-10-28T10:01:37.263Z,21.09
2022-10-28T10:04:46.965Z,21.06
2022-10-28T10:08:00.338Z,21.14
2022-10-28T10:11:23.680Z,21.13
2022-10-28T10:14:43.292Z,21.25
2022-10-28T10:17:52.550Z,21.32
2022-10-28T10:21:02.713Z,21.32
2022-10-28T10:24:37.891Z,21.38
2022-10-28T10:27:53.071Z,21.44
2022-10-28T10:31:05.156Z,21.53
2022-10-28T10:34:25.117Z,21.65
2022-10-28T10:37:37.669Z,21.76
2022-10-28T10:40:51.666Z,21.87
2022-10-28T10:44:00.018Z,21.93
2022-10-28T10:47:21.074Z,22.06
2022-10-28T10:50:32.979Z,22.16
2022-10-28T10:53:48.274Z,22.24
2022-10-28T10:57:08.339Z,22.41
2022-10-28T11:00:23.370Z,22.39
2022-10-28T11:03:36.740Z,22.44
2022-10-28T11:06:51.569Z,22.76
2022-10-28T11:10:02.869Z,23.18
2022-10-28T11:13:28.256Z,23.36
2022-10-28T11:16:50.831Z,23.50
2022-10-28T11:20:08.388Z,23.55
2022-10-28T11:23:51.065Z,23.65
2022-10-28T11:27:18.120Z,23.84
2022-10-28T11:30:47.377Z,23.84
2022-10-28T11:34:16.942Z,23.60
2022-10-28T11:37:44.992Z,23.31
2022-10-28T11:41:11.434Z,23.06
2022-10-28T11:44:35.018Z,22.87
2022-10-28T11:48:15.153Z,22.89
2022-10-28T11:51:40.277Z,22.84
2022-10-28T11:55:07.927Z,22.82
2022-10-28T11:58:32.551Z,22.85
2022-10-28T12:01:58.325Z,22.89
2022-10-28T12:05:19.277Z,22.98
2022-10-28T12:08:45.061Z,22.99
2022-10-28T12:12:11.222Z,23.01
2022-10-28T12:15:29.928Z,22.95
2022-10-28T12:18:53.786Z,22.78
2022-10-28T12:22:12.182Z,22.52
2022-10-28T12:25:26.420Z,22.36
2022-10-28T12:28:44.876Z,22.15
2022-10-28T12:32:01.620Z,22.02
2022-10-28T12:35:20.109Z,21.96
2022-10-28T12:38:39.418Z,22.15
2022-10-28T12:42:01.045Z,22.37
2022-10-28T12:45:16.582Z,22.65
2022-10-28T12:48:34.902Z,22.91
2022-10-28T12:51:45.387Z,23.13
2022-10-28T12:55:02.850Z,23.21
2022-10-28T12:58:19.589Z,23.26
2022-10-28T13:01:31.879Z,23.34
2022-10-28T13:04:41.741Z,23.48
2022-10-28T13:08:20.435Z,23.48
2022-10-28T13:12:40.150Z,23.50
2022-10-28T13:16:10.137Z,23.35
2022-10-28T13:19:54.812Z,23.21
2022-10-28T13:23:21.244Z,23.00
2022-10-28T13:26:33.928Z,22.72
2022-10-28T13:29:45.167Z,22.51
2022-10-28T13:33:06.457Z,22.24
2022-10-28T13:36:22.174Z,22.10
2022-10-28T13:39:46.483Z,21.91
2022-10-28T13:42:55.257Z,21.68
2022-10-28T13:46:03.882Z,21.54
2022-10-28T13:49:26.360Z,21.36
2022-10-28T13:52:53.970Z,21.23
2022-10-28T13:56:46.033Z,21.31
2022-10-28T14:00:02.757Z,21.50
2022-10-28T14:03:21.059Z,21.59
2022-10-28T14:06:37.517Z,21.70
2022-10-28T14:09:46.543Z,21.77
2022-10-28T14:13:01.137Z,21.82
2022-10-28T14:16:29.196Z,21.96
2022-10-28T14:19:37.876Z,22.00
2022-10-28T14:22:46.950Z,22.11
2022-10-28T14:26:05.441Z,22.13
2022-10-28T14:29:30.202Z,22.28
2022-10-28T14:32:45.293Z,22.33
2022-10-28T14:36:28.538Z,22.29
2022-10-28T14:39:45.065Z,22.25
2022-10-28T14:43:19.376Z,22.21
2022-10-28T14:46:49.215Z,22.23
2022-10-28T14:50:03.241Z,22.13
2022-10-28T14:53:23.824Z,22.00
2022-10-28T14:56:33.574Z,21.93
2022-10-28T14:59:45.491Z,21.77
2022-10-28T15:02:56.651Z,21.48
2022-10-28T15:06:39.055Z,21.20
2022-10-28T15:09:53.541Z,20.90
2022-10-28T15:13:03.640Z,20.68
2022-10-28T15:16:23.144Z,20.45
2022-10-28T15:19:38.491Z,20.25
2022-10-28T15:22:46.905Z,20.09
2022-10-28T15:26:07.730Z,19.88
2022-10-28T15:29:18.107Z,19.75
2022-10-28T15:32:33.824Z,19.62
2022-10-28T15:35:43.886Z,19.47
2022-10-28T15:39:05.633Z,19.34
2022-10-28T15:42:33.030Z,19.14
2022-10-28T15:45:42.834Z,18.91
2022-10-28T15:48:53.751Z,18.74
2022-10-28T15:52:31.733Z,18.51
2022-10-28T15:59:21.356Z,18.24
2022-10-28T16:02:43.064Z,18.12
2022-10-28T16:05:54.720Z,18.06
2022-10-28T16:13:41.144Z,17.67
2022-10-28T16:20:44.371Z,17.49
2022-10-28T16:24:07.949Z,17.34
2022-10-28T16:27:21.469Z,17.20
2022-10-28T16:30:31.803Z,17.04
2022-10-28T16:33:40.440Z,16.92
2022-10-28T16:36:48.989Z,16.88
2022-10-28T16:40:30.995Z,16.77
2022-10-28T16:43:43.905Z,16.77
2022-10-28T16:46:53.854Z,16.72
2022-10-28T16:50:02.357Z,16.59
2022-10-28T16:53:15.105Z,16.48
2022-10-28T16:56:24.107Z,16.35
2022-10-28T16:59:32.880Z,16.25
2022-10-28T17:02:43.280Z,16.17
2022-10-28T17:05:52.036Z,16.02
2022-10-28T17:09:03.207Z,15.88
2022-10-28T17:12:16.035Z,15.83
2022-10-28T17:15:24.545Z,15.72
2022-10-28T17:18:34.314Z,15.61
2022-10-28T17:21:43.677Z,15.51
2022-10-28T17:24:52.515Z,15.62
2022-10-28T17:28:01.672Z,15.37
2022-10-28T17:31:14.508Z,15.22
2022-10-28T17:34:27.452Z,15.08
2022-10-28T17:37:59.778Z,15.03
2022-10-28T17:41:08.230Z,14.99
2022-10-28T17:44:17.871Z,14.85
2022-10-28T17:47:26.988Z,14.73
2022-10-28T17:50:39.685Z,14.54
2022-10-28T17:53:49.172Z,14.43
2022-10-28T17:56:58.362Z,14.31
2022-10-28T18:00:08.814Z,14.22
2022-10-28T18:03:20.812Z,14.11
2022-10-28T18:06:31.002Z,14.06
2022-10-28T18:09:40.553Z,13.99
2022-10-28T18:12:52.216Z,13.93
2022-10-28T18:16:05.678Z,13.96
2022-10-28T18:19:15.344Z,13.97
2022-10-28T18:25:38.937Z,14.09
2022-10-28T18:28:48.974Z,14.06
2022-10-28T18:31:57.607Z,14.13
2022-10-28T18:35:07.165Z,14.17
2022-10-28T18:38:17.095Z,14.21
2022-10-28T18:41:43.424Z,14.04
2022-10-28T18:45:31.674Z,13.93
2022-10-28T18:48:41.987Z,13.87
2022-10-28T18:51:50.664Z,13.93
2022-10-28T18:55:01.163Z,13.88
2022-10-28T18:58:11.665Z,14.01
2022-10-28T19:01:25.419Z,14.07
2022-10-28T19:04:34.169Z,14.04
2022-10-28T19:07:42.748Z,14.06
2022-10-28T19:10:58.333Z,14.04
2022-10-28T19:14:08.501Z,14.05
2022-10-28T19:17:17.047Z,14.05
2022-10-28T19:20:26.085Z,14.09
2022-10-28T19:23:34.708Z,14.08
2022-10-28T19:26:44.690Z,14.11
2022-10-28T19:29:53.050Z,14.12
2022-10-28T19:33:01.599Z,14.23
2022-10-28T19:36:17.590Z,14.23
2022-10-28T19:40:06.798Z,14.24
2022-10-28T19:44:07.985Z,14.27
2022-10-28T19:48:05.290Z,14.27
2022-10-28T20:00:01.638Z,14.43
2022-10-28T20:03:21.356Z,14.44
2022-10-28T20:06:35.754Z,14.44
2022-10-28T20:09:44.239Z,14.50
2022-10-28T20:12:54.134Z,14.61
2022-10-28T20:16:42.669Z,14.68
2022-10-28T20:19:52.154Z,14.66
2022-10-28T20:23:00.833Z,14.93
2022-10-28T20:26:10.718Z,15.06
2022-10-28T20:29:19.512Z,14.57
2022-10-28T20:32:29.671Z,14.31
2022-10-28T20:35:38.172Z,14.52
2022-10-28T20:38:46.618Z,14.51
2022-10-28T20:41:55.186Z,14.21
2022-10-28T20:45:03.678Z,14.03
2022-10-28T20:48:13.539Z,13.91
2022-10-28T20:51:23.621Z,13.89
2022-10-28T20:54:32.442Z,13.93
2022-10-28T20:57:42.287Z,13.90
2022-10-28T21:06:00.076Z,13.96
2022-10-28T21:09:09.394Z,13.96
2022-10-28T21:12:17.879Z,13.99
2022-10-28T21:15:26.069Z,14.05
2022-10-28T21:18:38.600Z,14.16
2022-10-28T21:21:50.321Z,14.26
2022-10-28T21:24:59.014Z,14.23
2022-10-28T21:28:09.051Z,14.31
2022-10-28T21:31:19.056Z,14.31
2022-10-28T21:43:09.929Z,14.23
2022-10-28T21:46:26.875Z,14.22
2022-10-28T21:49:35.586Z,14.20
2022-10-28T21:52:44.058Z,14.32
2022-10-28T21:56:05.995Z,14.22
2022-10-28T22:03:10.227Z,14.34
2022-10-28T22:06:19.328Z,14.52
2022-10-28T22:09:27.652Z,14.70
2022-10-28T22:12:37.544Z,14.71
2022-10-28T22:15:45.993Z,14.56
2022-10-28T22:18:54.697Z,14.52
2022-10-28T22:22:03.230Z,14.49
2022-10-28T22:25:11.786Z,14.46
2022-10-28T22:28:21.531Z,14.43
2022-10-28T22:31:32.410Z,14.41
2022-10-28T22:34:40.596Z,14.42
2022-10-28T22:37:48.971Z,14.42
2022-10-28T22:41:05.809Z,14.46
2022-10-28T22:44:15.589Z,14.40
2022-10-28T22:47:24.163Z,14.35
2022-10-28T22:50:32.381Z,14.31
2022-10-28T22:53:41.494Z,14.26
2022-10-28T22:56:49.810Z,14.19
2022-10-28T22:59:59.370Z,14.20
2022-10-28T23:03:07.953Z,14.13
2022-10-28T23:06:19.671Z,14.09
2022-10-28T23:09:28.069Z,14.01
2022-10-28T23:12:36.642Z,13.89
2022-10-28T23:15:46.736Z,13.77
2022-10-28T23:18:55.396Z,13.67
2022-10-28T23:22:03.730Z,13.64
2022-10-28T23:25:12.206Z,13.50
2022-10-28T23:28:20.638Z,13.48
2022-10-28T23:31:30.468Z,13.36
2022-10-28T23:34:38.748Z,13.26
2022-10-28T23:37:46.965Z,13.11
2022-10-28T23:40:57.524Z,13.01
2022-10-28T23:44:06.158Z,12.97
2022-10-28T23:47:15.846Z,12.87
2022-10-28T23:50:24.057Z,12.79
2022-10-28T23:53:32.751Z,12.70
2022-10-28T23:56:41.200Z,12.68
2022-10-28T23:59:49.496Z,12.59
